Whitesboro, NY (13492)

7:27 AM EDT on August 22, 2014 (GMT -0400)
KNYCLARK2 | Change Station
CLOSE
Current Station
Personal Weather Station
Location: Clark Mills, NY
Elevation: 535 ft
Nearby Weather Stations

Elev 535 ft 43.09 °N, 75.37 °W | Updated 11 minutes ago

Mostly Cloudy
Mostly Cloudy
64.8 °F
Feels Like 64.8 °F
N
0.0
Wind Variable Wind from SW

Today
High -- | Low -- °F
--% Chance of Precip.
Yesterday
High -- | Low -- °F
Precip. -- in
6:14 AM 7:52 PM
Waning Crescent, 9% visible
Pressure 30.01 in
Visibility 8.0 miles
Clouds Scattered Clouds 900 ft
Mostly Cloudy 1800 ft
Dew Point 64 °F
Humidity 98%
Rainfall 0.00 in
Snow Depth Not available.
UV 0 out of 12
Pollen 7.10 out of 12
Air Quality Not available.
Flu Activity Not available.
SPECI KRME 221117Z 00000KT 8SM SCT009 BKN018 18/18 A3001 RMK AO2 T01830178

More Conditions Fewer Conditions

Pressure 30.01 in
Visibility 8.0 miles
Clouds Scattered Clouds 900 ft
Mostly Cloudy 1800 ft
Dew Point 64 °F
Humidity 98%
Rainfall 0.00 in
Snow Depth Not available.
UV 0 out of 12
Pollen 7.10 out of 12
Air Quality Not available.
Flu Activity Not available.
SPECI KRME 221117Z 00000KT 8SM SCT009 BKN018 18/18 A3001 RMK AO2 T01830178

More Conditions Fewer Conditions

10-Day Weather Forecast

Almanac

Astronomy

Aug. 22, 2014 Rise Set
Actual Time 6:14 AM EDT 7:52 PM EDT
Civil Twilight 5:44 AM EDT 8:22 PM EDT
Nautical Twilight 5:08 AM EDT 8:59 PM EDT
Astronomical Twilight 4:28 AM EDT 9:38 PM EDT
Moon 3:33 AM EDT 6:01 PM EDT
Length of Visible Light 14h 38m
Length of Day
13h 38m
Tomorrow will be 2m 43s shorter.
Waning Crescent, 9% of the Moon is Illuminated
Today
Waning Crescent
Aug 25
New
Sep 2
First Quarter
Sep 8
Full
Sep 15
Last Quarter

Today's Extremes

State Highs State Lows

Community

WunderPhotos

Upload Photos

1,746,148 photos uploaded!

WunderBlogs® & News

By Dr. Jeff Masters
Director of Meteorology, Weather Underground
By Kari Strenfel
Meteorologist, Weather Underground
By Christopher C. Burt
Weather Historian, Weather Underground
August 22, 2014
August 22, 2014
August 22, 2014

Nearby

Air Quality

  Air Quality AQ Index Pollutant
Friday Good
OZONE
Friday Good
PM2.5

Snow Depth

Station Depth Elevation
No new snow has been reported.

Earthquake Activity

City Distance Mag. Time & Date
No recent earthquake activity has been reported nearby.
Minimum magnitude displayed is 2.5.

Coastal Water Temperatures

Place Temperature
No Stations Reporting

Nearby Weather Stations